LLET/ETH METAR and TAF weather

Enter ICAO airport designator
Station Type Date Time Source
LLET METAR 2019/03/18 15:50 UTC NOAA

LLET 181550Z 02016KT CAVOK 24/M01 Q1016


Station Type Date Time Source
LLET Decoded METAR 2019/03/18 15:50 UTC NOAA

Eilat, Israel (LLET) 29-33N 034-57E 12M
Mar 18, 2019 - 11:50 AM EDT / 2019.03.18 1550 UTC
Wind: from the NNE (020 degrees) at 18 MPH (16 KT):0
Visibility: greater than 7 mile(s):0
Temperature: 75 F (24 C)
Dew Point: 30 F (-1 C)
Relative Humidity: 19%
Pressure (altimeter): 30.00 in. Hg (1016 hPa)
ob: LLET 181550Z 02016KT CAVOK 24/M01 Q1016
cycle: 16

Station Type Date Time Source
LLET TAF 2019/03/18 18:06 UTC NOAA

TAF LLET 181701Z 1818/1918 02015KT CAVOK
BECMG 1819/1821 36010KT
BECMG 1905/1907 02018KT PROB40 1910/1916 02020G30KT TX29/1912Z TN13/1904Z

Example: see airport list